sensor_id;sensor_type;location;lat;lon;timestamp;temperature;humidity
28069;DHT22;15382;47.578;8.086;2023-09-30T00:04:55;16.00;99.90
28069;DHT22;15382;47.578;8.086;2023-09-30T00:14:56;16.20;99.90
28069;DHT22;15382;47.578;8.086;2023-09-30T00:24:56;16.00;99.90
28069;DHT22;15382;47.578;8.086;2023-09-30T00:34:57;16.20;99.90
28069;DHT22;15382;47.578;8.086;2023-09-30T00:44:58;16.10;99.90
28069;DHT22;15382;47.578;8.086;2023-09-30T00:54:58;16.10;99.90
28069;DHT22;15382;47.578;8.086;2023-09-30T01:04:59;15.80;99.90
28069;DHT22;15382;47.578;8.086;2023-09-30T01:15:00;15.60;99.90
28069;DHT22;15382;47.578;8.086;2023-09-30T01:25:00;15.50;99.90
28069;DHT22;15382;47.578;8.086;2023-09-30T01:35:01;15.60;99.90
28069;DHT22;15382;47.578;8.086;2023-09-30T01:45:02;15.60;99.90
28069;DHT22;15382;47.578;8.086;2023-09-30T01:55:03;15.60;99.90
28069;DHT22;15382;47.578;8.086;2023-09-30T02:05:04;15.60;99.90
28069;DHT22;15382;47.578;8.086;2023-09-30T02:15:04;15.60;99.90
28069;DHT22;15382;47.578;8.086;2023-09-30T02:25:07;15.70;99.90
28069;DHT22;15382;47.578;8.086;2023-09-30T02:35:09;15.30;99.90
28069;DHT22;15382;47.578;8.086;2023-09-30T02:45:13;15.30;99.90
28069;DHT22;15382;47.578;8.086;2023-09-30T02:55:13;15.30;99.90
28069;DHT22;15382;47.578;8.086;2023-09-30T03:05:14;15.20;99.90
28069;DHT22;15382;47.578;8.086;2023-09-30T03:15:16;15.20;99.90
28069;DHT22;15382;47.578;8.086;2023-09-30T03:25:18;15.10;99.90
28069;DHT22;15382;47.578;8.086;2023-09-30T03:35:19;15.10;99.90
28069;DHT22;15382;47.578;8.086;2023-09-30T03:45:20;15.00;99.90
28069;DHT22;15382;47.578;8.086;2023-09-30T03:55:20;15.10;99.90
28069;DHT22;15382;47.578;8.086;2023-09-30T04:05:21;15.00;99.90
28069;DHT22;15382;47.578;8.086;2023-09-30T04:15:27;15.00;99.90
28069;DHT22;15382;47.578;8.086;2023-09-30T04:25:27;14.80;99.90
28069;DHT22;15382;47.578;8.086;2023-09-30T04:35:28;14.60;99.90
28069;DHT22;15382;47.578;8.086;2023-09-30T04:45:31;14.40;99.90
28069;DHT22;15382;47.578;8.086;2023-09-30T04:55:31;14.20;99.90
28069;DHT22;15382;47.578;8.086;2023-09-30T05:05:32;14.30;99.90
28069;DHT22;15382;47.578;8.086;2023-09-30T05:15:33;14.50;99.90
28069;DHT22;15382;47.578;8.086;2023-09-30T05:25:35;14.60;99.90
28069;DHT22;15382;47.578;8.086;2023-09-30T05:35:36;14.40;99.90
28069;DHT22;15382;47.578;8.086;2023-09-30T05:45:38;14.30;99.90
28069;DHT22;15382;47.578;8.086;2023-09-30T05:55:41;14.30;99.90
28069;DHT22;15382;47.578;8.086;2023-09-30T06:05:46;14.40;99.90
28069;DHT22;15382;47.578;8.086;2023-09-30T06:15:46;14.80;99.90
28069;DHT22;15382;47.578;8.086;2023-09-30T06:25:47;14.90;99.90
28069;DHT22;15382;47.578;8.086;2023-09-30T06:35:48;15.10;99.90
28069;DHT22;15382;47.578;8.086;2023-09-30T06:45:51;15.50;99.90
28069;DHT22;15382;47.578;8.086;2023-09-30T06:55:52;15.90;99.90
28069;DHT22;15382;47.578;8.086;2023-09-30T07:05:53;16.30;99.90
28069;DHT22;15382;47.578;8.086;2023-09-30T07:15:54;16.50;99.90
28069;DHT22;15382;47.578;8.086;2023-09-30T07:25:55;16.70;99.90
28069;DHT22;15382;47.578;8.086;2023-09-30T07:35:55;17.30;99.90
28069;DHT22;15382;47.578;8.086;2023-09-30T07:45:56;17.50;99.90
28069;DHT22;15382;47.578;8.086;2023-09-30T07:55:57;18.20;99.90
28069;DHT22;15382;47.578;8.086;2023-09-30T08:05:57;18.40;99.90
28069;DHT22;15382;47.578;8.086;2023-09-30T08:15:59;19.40;99.90
28069;DHT22;15382;47.578;8.086;2023-09-30T08:25:59;19.10;99.90
28069;DHT22;15382;47.578;8.086;2023-09-30T08:36:03;19.10;99.90
28069;DHT22;15382;47.578;8.086;2023-09-30T08:46:08;19.50;99.90
28069;DHT22;15382;47.578;8.086;2023-09-30T08:56:09;20.10;99.90
28069;DHT22;15382;47.578;8.086;2023-09-30T09:06:10;19.90;99.90
28069;DHT22;15382;47.578;8.086;2023-09-30T09:16:11;20.00;99.90
28069;DHT22;15382;47.578;8.086;2023-09-30T09:26:12;21.00;99.90
28069;DHT22;15382;47.578;8.086;2023-09-30T09:36:14;21.30;99.90
28069;DHT22;15382;47.578;8.086;2023-09-30T09:46:15;21.50;99.90
28069;DHT22;15382;47.578;8.086;2023-09-30T09:56:16;22.00;99.90
28069;DHT22;15382;47.578;8.086;2023-09-30T10:06:18;22.90;99.90
28069;DHT22;15382;47.578;8.086;2023-09-30T10:26:36;24.60;99.90
28069;DHT22;15382;47.578;8.086;2023-09-30T10:36:40;24.90;99.90
28069;DHT22;15382;47.578;8.086;2023-09-30T10:46:41;25.50;99.90
28069;DHT22;15382;47.578;8.086;2023-09-30T10:56:42;25.30;99.90
28069;DHT22;15382;47.578;8.086;2023-09-30T11:06:42;26.60;99.90
28069;DHT22;15382;47.578;8.086;2023-09-30T11:16:43;25.90;99.90
28069;DHT22;15382;47.578;8.086;2023-09-30T11:26:44;27.00;99.90
28069;DHT22;15382;47.578;8.086;2023-09-30T11:36:49;25.60;99.90
28069;DHT22;15382;47.578;8.086;2023-09-30T11:46:51;25.50;99.90
28069;DHT22;15382;47.578;8.086;2023-09-30T11:56:56;25.90;99.90
28069;DHT22;15382;47.578;8.086;2023-09-30T12:06:56;24.90;99.90
28069;DHT22;15382;47.578;8.086;2023-09-30T12:16:58;25.30;99.90
28069;DHT22;15382;47.578;8.086;2023-09-30T12:26:58;24.90;99.90
28069;DHT22;15382;47.578;8.086;2023-09-30T12:36:59;26.60;99.90
28069;DHT22;15382;47.578;8.086;2023-09-30T12:47:00;25.90;99.90
28069;DHT22;15382;47.578;8.086;2023-09-30T12:57:01;24.70;99.90
28069;DHT22;15382;47.578;8.086;2023-09-30T13:07:01;24.70;99.90
28069;DHT22;15382;47.578;8.086;2023-09-30T13:17:03;24.30;99.90
28069;DHT22;15382;47.578;8.086;2023-09-30T13:27:04;24.10;99.90
28069;DHT22;15382;47.578;8.086;2023-09-30T13:37:05;24.50;99.90
28069;DHT22;15382;47.578;8.086;2023-09-30T13:47:05;24.40;99.90
28069;DHT22;15382;47.578;8.086;2023-09-30T13:57:09;25.00;99.90
28069;DHT22;15382;47.578;8.086;2023-09-30T14:07:09;24.00;99.90
28069;DHT22;15382;47.578;8.086;2023-09-30T14:17:10;23.90;99.90
28069;DHT22;15382;47.578;8.086;2023-09-30T14:27:11;23.30;99.90
28069;DHT22;15382;47.578;8.086;2023-09-30T14:37:13;23.50;99.90
28069;DHT22;15382;47.578;8.086;2023-09-30T14:47:14;23.80;99.90
28069;DHT22;15382;47.578;8.086;2023-09-30T14:57:15;23.70;99.90
28069;DHT22;15382;47.578;8.086;2023-09-30T15:07:16;23.60;99.90
28069;DHT22;15382;47.578;8.086;2023-09-30T15:17:17;23.70;99.90
28069;DHT22;15382;47.578;8.086;2023-09-30T15:27:17;23.90;99.90
28069;DHT22;15382;47.578;8.086;2023-09-30T15:37:18;23.30;99.90
28069;DHT22;15382;47.578;8.086;2023-09-30T15:47:19;23.00;99.90
28069;DHT22;15382;47.578;8.086;2023-09-30T15:57:20;22.40;99.90
28069;DHT22;15382;47.578;8.086;2023-09-30T16:07:20;22.00;99.90
28069;DHT22;15382;47.578;8.086;2023-09-30T16:17:21;21.90;99.90
28069;DHT22;15382;47.578;8.086;2023-09-30T16:27:22;21.50;99.90
28069;DHT22;15382;47.578;8.086;2023-09-30T16:37:22;21.10;99.90
28069;DHT22;15382;47.578;8.086;2023-09-30T16:47:23;20.80;99.90
28069;DHT22;15382;47.578;8.086;2023-09-30T16:57:24;20.60;99.90
28069;DHT22;15382;47.578;8.086;2023-09-30T17:07:25;20.30;99.90
28069;DHT22;15382;47.578;8.086;2023-09-30T17:17:25;19.80;99.90
28069;DHT22;15382;47.578;8.086;2023-09-30T17:27:27;19.30;99.90
28069;DHT22;15382;47.578;8.086;2023-09-30T17:37:28;19.30;99.90
28069;DHT22;15382;47.578;8.086;2023-09-30T17:47:29;18.90;99.90
28069;DHT22;15382;47.578;8.086;2023-09-30T17:57:30;18.40;99.90
28069;DHT22;15382;47.578;8.086;2023-09-30T18:07:32;18.10;99.90
28069;DHT22;15382;47.578;8.086;2023-09-30T18:17:33;17.70;99.90
28069;DHT22;15382;47.578;8.086;2023-09-30T18:27:35;16.80;99.90
28069;DHT22;15382;47.578;8.086;2023-09-30T18:37:36;17.00;99.90
28069;DHT22;15382;47.578;8.086;2023-09-30T18:47:37;16.90;99.90
28069;DHT22;15382;47.578;8.086;2023-09-30T18:57:38;16.00;99.90
28069;DHT22;15382;47.578;8.086;2023-09-30T19:07:38;16.10;99.90
28069;DHT22;15382;47.578;8.086;2023-09-30T19:17:40;15.00;99.90
28069;DHT22;15382;47.578;8.086;2023-09-30T19:27:40;14.80;99.90
28069;DHT22;15382;47.578;8.086;2023-09-30T19:37:41;15.90;99.90
28069;DHT22;15382;47.578;8.086;2023-09-30T19:47:42;15.00;99.90
28069;DHT22;15382;47.578;8.086;2023-09-30T19:57:42;14.50;99.90
28069;DHT22;15382;47.578;8.086;2023-09-30T20:07:43;14.50;99.90
28069;DHT22;15382;47.578;8.086;2023-09-30T20:17:44;14.60;99.90
28069;DHT22;15382;47.578;8.086;2023-09-30T20:27:49;14.40;99.90
28069;DHT22;15382;47.578;8.086;2023-09-30T20:37:50;14.40;99.90
28069;DHT22;15382;47.578;8.086;2023-09-30T20:47:50;14.40;99.90
28069;DHT22;15382;47.578;8.086;2023-09-30T20:57:51;14.30;99.90
28069;DHT22;15382;47.578;8.086;2023-09-30T21:07:52;13.90;99.90
28069;DHT22;15382;47.578;8.086;2023-09-30T21:17:53;13.60;99.90
28069;DHT22;15382;47.578;8.086;2023-09-30T21:27:53;13.60;99.90
28069;DHT22;15382;47.578;8.086;2023-09-30T21:37:54;13.60;99.90
28069;DHT22;15382;47.578;8.086;2023-09-30T21:47:55;13.00;99.90
28069;DHT22;15382;47.578;8.086;2023-09-30T21:57:56;13.00;99.90
28069;DHT22;15382;47.578;8.086;2023-09-30T22:07:56;12.50;99.90
28069;DHT22;15382;47.578;8.086;2023-09-30T22:17:57;12.60;99.90
28069;DHT22;15382;47.578;8.086;2023-09-30T22:27:58;12.60;99.90
28069;DHT22;15382;47.578;8.086;2023-09-30T22:37:59;12.40;99.90
28069;DHT22;15382;47.578;8.086;2023-09-30T22:47:59;11.90;99.90
28069;DHT22;15382;47.578;8.086;2023-09-30T22:58:00;11.90;99.90
28069;DHT22;15382;47.578;8.086;2023-09-30T23:08:01;11.80;99.90
28069;DHT22;15382;47.578;8.086;2023-09-30T23:18:01;11.80;99.90
28069;DHT22;15382;47.578;8.086;2023-09-30T23:28:03;11.70;99.90
28069;DHT22;15382;47.578;8.086;2023-09-30T23:38:07;11.50;99.90
28069;DHT22;15382;47.578;8.086;2023-09-30T23:48:08;11.40;99.90
28069;DHT22;15382;47.578;8.086;2023-09-30T23:58:09;11.40;99.90
